Time;durP1;ratioP1;P1;durP2;ratioP2;P2;SDS_P1;SDS_P2;PMS_P1;PMS_P2;Temp;Humidity;BMP_temperature;BMP_pressure;BME280_temperature;BME280_humidity;BME280_pressure;Samples;Min_cycle;Max_cycle;Signal;HPM_P1;HPM_P2
2023/07/17 00:01:15;;;;;;;7.38;6.15;;;;;;;;;;5008413;28;20038;-71
2023/07/17 00:03:40;;;;;;;6.57;5.38;;;;;;;;;;5002150;28;20045;-72
2023/07/17 00:06:06;;;;;;;9.18;5.22;;;;;;;;;;5004498;28;20053;-72
2023/07/17 00:08:31;;;;;;;7.43;5.32;;;;;;;;;;5002619;28;20081;-74
2023/07/17 00:10:58;;;;;;;5.75;4.82;;;;;;;;;;5008288;28;20164;-71
2023/07/17 00:13:24;;;;;;;7.68;4.43;;;;;;;;;;5011219;28;20079;-70
2023/07/17 00:15:49;;;;;;;6.85;4.43;;;;;;;;;;5013062;28;20055;-72
2023/07/17 00:18:15;;;;;;;6.72;4.72;;;;;;;;;;5012172;28;20411;-73
2023/07/17 00:20:40;;;;;;;7.75;3.92;;;;;;;;;;5016973;28;20056;-74
2023/07/17 00:23:06;;;;;;;6.47;4.20;;;;;;;;;;5013454;28;20050;-73
2023/07/17 00:25:31;;;;;;;8.68;4.47;;;;;;;;;;5010087;28;20961;-72
2023/07/17 00:27:57;;;;;;;8.48;4.53;;;;;;;;;;5010401;28;20099;-75
2023/07/17 00:30:22;;;;;;;4.80;4.22;;;;;;;;;;5005404;28;20045;-72
2023/07/17 00:32:48;;;;;;;6.47;4.45;;;;;;;;;;5003759;28;20053;-73
2023/07/17 00:35:14;;;;;;;4.88;4.30;;;;;;;;;;5013646;28;20052;-74
2023/07/17 00:37:39;;;;;;;6.50;4.32;;;;;;;;;;5010888;28;20533;-73
2023/07/17 00:40:07;;;;;;;7.28;3.90;;;;;;;;;;5013902;28;20544;-74
2023/07/17 00:42:35;;;;;;;4.55;4.15;;;;;;;;;;5011108;28;20050;-74
2023/07/17 00:45:01;;;;;;;4.78;4.28;;;;;;;;;;5016311;28;20049;-71
2023/07/17 00:47:28;;;;;;;10.00;4.63;;;;;;;;;;5009274;28;20461;-76
2023/07/17 00:49:53;;;;;;;5.28;4.35;;;;;;;;;;5013419;28;20039;-75
2023/07/17 00:52:19;;;;;;;5.68;4.25;;;;;;;;;;5010428;28;20041;-72
2023/07/17 00:54:46;;;;;;;4.93;4.25;;;;;;;;;;5008664;28;20045;-71
2023/07/17 00:57:15;;;;;;;5.18;4.43;;;;;;;;;;5014298;28;20068;-71
2023/07/17 00:59:42;;;;;;;4.55;4.15;;;;;;;;;;5012377;28;20519;-71
2023/07/17 01:02:08;;;;;;;4.65;4.25;;;;;;;;;;5007246;28;20046;-75
2023/07/17 01:04:35;;;;;;;4.30;3.90;;;;;;;;;;5014605;28;20387;-74
2023/07/17 01:07:01;;;;;;;4.57;4.13;;;;;;;;;;5021513;28;20164;-75
2023/07/17 01:09:28;;;;;;;6.07;4.45;;;;;;;;;;5007517;28;21054;-75
2023/07/17 01:11:54;;;;;;;5.15;4.45;;;;;;;;;;5003741;28;20145;-74
2023/07/17 01:14:19;;;;;;;7.90;4.82;;;;;;;;;;5005470;28;20136;-71
2023/07/17 01:16:47;;;;;;;12.27;5.32;;;;;;;;;;5011189;28;20056;-76
2023/07/17 01:19:13;;;;;;;6.68;4.68;;;;;;;;;;5007165;28;20047;-73
2023/07/17 01:21:53;;;;;;;5.30;4.80;;;;;;;;;;5007353;28;20052;-74
2023/07/17 01:24:19;;;;;;;5.43;4.75;;;;;;;;;;5007326;28;20965;-77
2023/07/17 01:26:44;;;;;;;12.10;4.57;;;;;;;;;;5007795;28;20136;-71
2023/07/17 01:29:10;;;;;;;8.48;4.60;;;;;;;;;;5007152;28;20168;-71
2023/07/17 01:31:37;;;;;;;6.63;3.65;;;;;;;;;;5010893;28;20490;-71
2023/07/17 01:34:04;;;;;;;5.35;4.45;;;;;;;;;;5009962;28;20064;-74
2023/07/17 01:36:29;;;;;;;8.68;4.45;;;;;;;;;;5008650;28;20402;-72
2023/07/17 01:38:56;;;;;;;4.90;4.30;;;;;;;;;;5008000;28;20069;-74
2023/07/17 01:41:24;;;;;;;5.75;4.45;;;;;;;;;;5011378;28;20157;-72
2023/07/17 01:43:50;;;;;;;9.38;5.03;;;;;;;;;;5007639;28;20554;-77
2023/07/17 01:46:16;;;;;;;4.90;4.50;;;;;;;;;;5014309;28;20136;-72
2023/07/17 01:48:42;;;;;;;7.88;4.78;;;;;;;;;;5011373;28;20949;-71
2023/07/17 01:51:08;;;;;;;5.22;4.70;;;;;;;;;;5006938;28;20041;-75
2023/07/17 01:53:33;;;;;;;5.38;4.88;;;;;;;;;;5007029;28;20052;-70
2023/07/17 01:56:00;;;;;;;10.23;4.78;;;;;;;;;;5000235;28;20530;-72
2023/07/17 01:58:26;;;;;;;6.38;4.35;;;;;;;;;;4998000;28;20119;-72
2023/07/17 02:00:53;;;;;;;9.25;4.65;;;;;;;;;;4999640;28;20491;-74
2023/07/17 02:03:19;;;;;;;11.50;5.72;;;;;;;;;;5005832;28;20073;-73
2023/07/17 02:05:44;;;;;;;12.68;5.50;;;;;;;;;;5000793;28;20046;-71
2023/07/17 02:08:09;;;;;;;13.45;5.75;;;;;;;;;;5003825;28;20064;-74
2023/07/17 02:10:40;;;;;;;8.75;4.85;;;;;;;;;;5004406;28;20503;-70
2023/07/17 02:13:06;;;;;;;6.70;5.57;;;;;;;;;;5006604;28;20090;-73
2023/07/17 02:15:31;;;;;;;9.80;4.72;;;;;;;;;;5004492;28;20153;-72
2023/07/17 02:17:57;;;;;;;6.10;4.43;;;;;;;;;;5006969;28;20042;-70
2023/07/17 02:20:23;;;;;;;4.85;4.20;;;;;;;;;;5001268;28;20048;-72
2023/07/17 02:22:49;;;;;;;7.65;4.78;;;;;;;;;;5005926;28;20779;-71
2023/07/17 02:25:14;;;;;;;5.43;4.45;;;;;;;;;;5016685;28;20107;-71
2023/07/17 02:27:40;;;;;;;4.85;4.38;;;;;;;;;;5000432;28;20060;-73
2023/07/17 02:30:06;;;;;;;4.75;4.25;;;;;;;;;;5001583;28;20049;-72
2023/07/17 02:32:31;;;;;;;7.03;4.75;;;;;;;;;;5001378;28;20124;-71
2023/07/17 02:34:58;;;;;;;7.38;4.15;;;;;;;;;;5004679;28;20533;-70
2023/07/17 02:37:24;;;;;;;6.40;4.40;;;;;;;;;;5001579;28;20085;-74
2023/07/17 02:39:49;;;;;;;4.18;3.83;;;;;;;;;;5007727;28;20128;-72
2023/07/17 02:42:14;;;;;;;5.50;4.30;;;;;;;;;;5002816;28;20398;-74
2023/07/17 02:44:40;;;;;;;4.90;4.25;;;;;;;;;;5003561;28;20107;-71
2023/07/17 02:47:05;;;;;;;5.60;4.30;;;;;;;;;;5001326;28;20135;-72
2023/07/17 02:49:31;;;;;;;5.32;3.80;;;;;;;;;;5001181;28;20211;-71
2023/07/17 02:51:56;;;;;;;5.25;4.28;;;;;;;;;;4999974;28;20049;-71
2023/07/17 02:54:22;;;;;;;4.88;3.95;;;;;;;;;;5002002;28;20112;-71
2023/07/17 02:56:48;;;;;;;4.72;4.22;;;;;;;;;;5022125;28;20099;-74
2023/07/17 02:59:14;;;;;;;4.57;4.18;;;;;;;;;;5007461;28;20045;-71
2023/07/17 03:01:40;;;;;;;4.63;4.22;;;;;;;;;;5003012;28;20612;-73
2023/07/17 03:04:06;;;;;;;4.32;3.92;;;;;;;;;;5012434;28;20061;-72
2023/07/17 03:06:31;;;;;;;4.15;3.72;;;;;;;;;;5010728;28;20585;-70
2023/07/17 03:08:56;;;;;;;8.23;4.30;;;;;;;;;;5009926;28;20049;-73
2023/07/17 03:11:23;;;;;;;9.32;4.80;;;;;;;;;;5008386;28;20487;-71
2023/07/17 03:13:49;;;;;;;5.45;4.95;;;;;;;;;;5002836;28;20140;-75
2023/07/17 03:16:16;;;;;;;9.43;4.60;;;;;;;;;;5011723;28;20232;-71
2023/07/17 03:18:41;;;;;;;5.75;4.43;;;;;;;;;;5005326;28;20608;-72
2023/07/17 03:21:07;;;;;;;6.07;4.20;;;;;;;;;;5005456;28;20050;-71
2023/07/17 03:23:32;;;;;;;9.52;5.53;;;;;;;;;;5009762;28;20061;-72
2023/07/17 03:25:58;;;;;;;9.35;6.50;;;;;;;;;;5007247;28;20056;-72
2023/07/17 03:28:24;;;;;;;10.23;7.10;;;;;;;;;;5010383;28;20045;-71
2023/07/17 03:30:51;;;;;;;7.68;6.10;;;;;;;;;;5008949;28;20604;-72
2023/07/17 03:33:16;;;;;;;8.23;6.68;;;;;;;;;;5010333;28;20042;-72
2023/07/17 03:35:45;;;;;;;7.15;6.18;;;;;;;;;;4993260;28;20061;-72
2023/07/17 03:38:10;;;;;;;7.93;5.15;;;;;;;;;;5001277;28;20045;-72
2023/07/17 03:40:35;;;;;;;6.25;5.38;;;;;;;;;;5006970;28;20407;-71
2023/07/17 03:43:01;;;;;;;8.63;5.18;;;;;;;;;;5010725;28;20061;-70
2023/07/17 03:45:27;;;;;;;6.18;5.30;;;;;;;;;;5011758;28;20052;-72
2023/07/17 03:47:53;;;;;;;6.97;5.18;;;;;;;;;;5010217;28;20049;-74
2023/07/17 03:50:19;;;;;;;5.13;4.63;;;;;;;;;;5011024;28;20120;-71
2023/07/17 03:52:44;;;;;;;4.55;4.15;;;;;;;;;;5010417;28;20172;-71
2023/07/17 03:55:10;;;;;;;6.55;4.03;;;;;;;;;;5009721;28;20541;-72
2023/07/17 03:57:35;;;;;;;7.20;4.20;;;;;;;;;;5005755;28;20073;-70
2023/07/17 04:00:01;;;;;;;7.05;3.97;;;;;;;;;;5001400;28;20042;-75
2023/07/17 04:02:41;;;;;;;6.82;4.60;;;;;;;;;;5004059;28;20076;-73
2023/07/17 04:05:10;;;;;;;4.67;3.70;;;;;;;;;;4984573;28;20057;-72
2023/07/17 04:07:36;;;;;;;5.30;4.22;;;;;;;;;;5008167;28;20058;-75
2023/07/17 04:10:03;;;;;;;4.45;3.97;;;;;;;;;;5009028;28;20045;-72
2023/07/17 04:12:29;;;;;;;5.78;4.25;;;;;;;;;;5007496;28;20045;-72
2023/07/17 04:14:55;;;;;;;7.55;5.43;;;;;;;;;;5005925;28;20042;-72
2023/07/17 04:17:21;;;;;;;12.13;5.55;;;;;;;;;;5006822;28;20045;-72
2023/07/17 04:19:47;;;;;;;6.78;5.63;;;;;;;;;;5003896;28;20092;-72
2023/07/17 04:22:12;;;;;;;9.18;6.15;;;;;;;;;;5009384;28;20061;-72
2023/07/17 04:24:38;;;;;;;8.18;5.47;;;;;;;;;;5004798;28;20045;-75
2023/07/17 04:27:03;;;;;;;5.78;4.60;;;;;;;;;;5002600;28;20041;-74
2023/07/17 04:29:29;;;;;;;7.85;3.90;;;;;;;;;;5005168;28;20042;-74
2023/07/17 04:31:59;;;;;;;9.45;3.38;;;;;;;;;;5001812;28;20113;-73
2023/07/17 04:34:25;;;;;;;4.10;2.60;;;;;;;;;;5004657;28;20053;-71
2023/07/17 04:36:50;;;;;;;4.20;2.70;;;;;;;;;;5006781;28;20038;-73
2023/07/17 04:39:16;;;;;;;4.47;2.35;;;;;;;;;;5005695;28;20057;-70
2023/07/17 04:41:41;;;;;;;7.55;2.72;;;;;;;;;;5004409;28;20076;-71
2023/07/17 04:44:08;;;;;;;2.03;1.88;;;;;;;;;;5002606;28;20041;-71
2023/07/17 04:46:34;;;;;;;2.30;2.10;;;;;;;;;;5004335;28;20046;-70
2023/07/17 04:49:00;;;;;;;3.67;2.70;;;;;;;;;;5005154;28;20048;-71
2023/07/17 04:51:25;;;;;;;3.30;2.50;;;;;;;;;;5006835;28;20058;-74
2023/07/17 04:53:51;;;;;;;3.72;2.53;;;;;;;;;;5004162;28;20042;-72
2023/07/17 04:56:17;;;;;;;2.90;2.63;;;;;;;;;;5004309;28;20046;-71
2023/07/17 04:58:44;;;;;;;3.17;2.85;;;;;;;;;;4996928;28;20037;-72
2023/07/17 05:01:10;;;;;;;3.40;2.90;;;;;;;;;;5024283;28;20045;-72
2023/07/17 05:03:36;;;;;;;4.13;2.30;;;;;;;;;;5008465;28;20784;-72
2023/07/17 05:06:03;;;;;;;3.83;2.72;;;;;;;;;;5007037;28;20038;-74
2023/07/17 05:08:28;;;;;;;2.83;2.22;;;;;;;;;;5011900;28;20168;-71
2023/07/17 05:11:02;;;;;;;3.00;2.00;;;;;;;;;;5007294;28;20148;-71
2023/07/17 05:13:32;;;;;;;1.67;1.50;;;;;;;;;;5027631;28;20053;-75
2023/07/17 05:15:59;;;;;;;1.90;1.80;;;;;;;;;;5006824;28;20046;-72
2023/07/17 05:18:25;;;;;;;1.90;1.60;;;;;;;;;;5008813;28;20034;-72
2023/07/17 05:20:51;;;;;;;2.28;1.80;;;;;;;;;;5011471;28;20530;-70
2023/07/17 05:23:17;;;;;;;4.30;1.65;;;;;;;;;;5013247;28;20133;-73
2023/07/17 05:25:56;;;;;;;2.30;1.70;;;;;;;;;;5011351;28;20069;-70
2023/07/17 05:28:24;;;;;;;1.85;1.75;;;;;;;;;;5023776;28;20048;-73
2023/07/17 05:30:54;;;;;;;3.15;1.92;;;;;;;;;;5006972;28;20049;-71
2023/07/17 05:33:21;;;;;;;3.70;2.22;;;;;;;;;;5007915;28;20042;-71
2023/07/17 05:35:48;;;;;;;6.13;2.10;;;;;;;;;;5023810;28;20041;-71
2023/07/17 05:38:13;;;;;;;2.67;1.80;;;;;;;;;;5012834;28;20115;-71
2023/07/17 05:40:40;;;;;;;2.10;1.50;;;;;;;;;;5004695;28;20490;-71
2023/07/17 05:43:08;;;;;;;2.13;1.67;;;;;;;;;;5002696;28;20160;-72
2023/07/17 05:45:37;;;;;;;5.75;2.40;;;;;;;;;;5000176;28;20136;-71
2023/07/17 05:48:03;;;;;;;5.70;2.20;;;;;;;;;;5000703;28;20549;-71
2023/07/17 05:50:28;;;;;;;3.67;2.20;;;;;;;;;;5002756;28;20045;-70
2023/07/17 05:52:54;;;;;;;3.15;1.98;;;;;;;;;;4999331;28;20064;-71
2023/07/17 05:55:19;;;;;;;3.42;2.40;;;;;;;;;;5000544;28;20042;-71
2023/07/17 05:57:45;;;;;;;4.60;2.72;;;;;;;;;;5002407;28;20045;-71
2023/07/17 06:00:14;;;;;;;3.35;2.50;;;;;;;;;;5008863;28;20072;-72
2023/07/17 06:02:40;;;;;;;6.15;2.92;;;;;;;;;;5004436;28;20132;-71
2023/07/17 06:05:06;;;;;;;3.25;2.58;;;;;;;;;;5008229;28;20077;-70
2023/07/17 06:07:32;;;;;;;3.55;2.80;;;;;;;;;;5002071;28;20085;-71
2023/07/17 06:09:58;;;;;;;4.25;2.38;;;;;;;;;;5001006;28;20100;-71
2023/07/17 06:12:23;;;;;;;3.90;2.63;;;;;;;;;;5001931;28;20507;-70
2023/07/17 06:14:49;;;;;;;4.18;2.67;;;;;;;;;;5005263;28;20110;-70
2023/07/17 06:17:14;;;;;;;3.10;2.47;;;;;;;;;;5010399;28;20160;-70
2023/07/17 06:19:39;;;;;;;3.50;2.47;;;;;;;;;;5011980;28;20057;-71
2023/07/17 06:22:05;;;;;;;3.78;3.03;;;;;;;;;;5002209;28;20052;-69
2023/07/17 06:24:30;;;;;;;4.05;3.03;;;;;;;;;;5000111;28;20624;-71
2023/07/17 06:26:56;;;;;;;5.25;3.58;;;;;;;;;;5002114;28;20046;-70
2023/07/17 06:29:21;;;;;;;5.82;3.78;;;;;;;;;;5001708;28;20521;-72
2023/07/17 06:31:46;;;;;;;4.88;4.03;;;;;;;;;;5002118;28;20146;-70
2023/07/17 06:34:12;;;;;;;5.15;4.35;;;;;;;;;;5001422;28;20955;-70
2023/07/17 06:36:37;;;;;;;6.15;4.53;;;;;;;;;;5006953;28;20157;-69
2023/07/17 06:39:03;;;;;;;7.03;4.65;;;;;;;;;;5001161;28;20037;-71
2023/07/17 06:41:28;;;;;;;6.15;4.47;;;;;;;;;;5001344;28;20050;-70
2023/07/17 06:43:55;;;;;;;5.85;4.38;;;;;;;;;;5000532;28;20046;-73
2023/07/17 06:46:20;;;;;;;6.10;4.32;;;;;;;;;;4998426;28;20070;-72
2023/07/17 06:48:46;;;;;;;6.18;4.40;;;;;;;;;;5007970;28;20518;-71
2023/07/17 06:51:11;;;;;;;10.25;4.95;;;;;;;;;;5002551;28;20045;-72
2023/07/17 06:53:36;;;;;;;7.10;4.50;;;;;;;;;;5001351;28;20042;-71
2023/07/17 06:56:03;;;;;;;8.60;5.32;;;;;;;;;;5000835;28;20120;-71
2023/07/17 06:58:29;;;;;;;8.23;4.97;;;;;;;;;;4999747;28;20064;-71
2023/07/17 07:00:58;;;;;;;6.03;4.63;;;;;;;;;;5001812;28;20053;-70
2023/07/17 07:03:24;;;;;;;7.60;4.72;;;;;;;;;;5000709;28;20069;-70
2023/07/17 07:05:57;;;;;;;7.38;4.78;;;;;;;;;;5001333;28;20610;-70
2023/07/17 07:08:25;;;;;;;8.02;4.50;;;;;;;;;;4999155;28;20045;-69
2023/07/17 07:10:52;;;;;;;7.95;4.30;;;;;;;;;;5001332;28;20184;-70
2023/07/17 07:13:19;;;;;;;8.02;4.18;;;;;;;;;;4997857;28;20505;-72
2023/07/17 07:15:44;;;;;;;4.45;3.75;;;;;;;;;;5007023;28;20494;-72
2023/07/17 07:18:10;;;;;;;4.55;3.60;;;;;;;;;;5002174;28;20116;-70
2023/07/17 07:20:36;;;;;;;8.10;3.88;;;;;;;;;;4998540;28;20927;-70
2023/07/17 07:23:02;;;;;;;4.20;3.75;;;;;;;;;;5003553;28;20050;-70
2023/07/17 07:25:27;;;;;;;6.45;4.00;;;;;;;;;;5000299;28;20115;-71
2023/07/17 07:27:52;;;;;;;6.05;4.07;;;;;;;;;;5000312;28;20080;-71
2023/07/17 07:30:18;;;;;;;6.95;4.00;;;;;;;;;;4999472;28;20249;-70
2023/07/17 07:32:43;;;;;;;4.90;3.90;;;;;;;;;;5000379;28;20050;-71
2023/07/17 07:35:09;;;;;;;6.30;4.00;;;;;;;;;;5000196;28;20046;-71
2023/07/17 07:37:34;;;;;;;5.75;4.10;;;;;;;;;;5000603;28;20100;-70
2023/07/17 07:40:00;;;;;;;4.75;3.92;;;;;;;;;;4999535;28;20064;-70
2023/07/17 07:42:25;;;;;;;5.95;3.70;;;;;;;;;;5000123;28;20096;-70
2023/07/17 07:44:51;;;;;;;3.83;3.42;;;;;;;;;;5000127;28;20487;-70
2023/07/17 07:47:16;;;;;;;5.57;3.70;;;;;;;;;;5004316;28;20052;-70
2023/07/17 07:49:42;;;;;;;5.47;4.00;;;;;;;;;;4999802;28;20050;-70
2023/07/17 07:52:07;;;;;;;5.80;3.15;;;;;;;;;;5002420;28;20088;-71
2023/07/17 07:54:33;;;;;;;5.47;3.35;;;;;;;;;;5023128;28;20093;-70
2023/07/17 07:56:58;;;;;;;6.13;3.08;;;;;;;;;;5004793;28;20050;-70
2023/07/17 07:59:23;;;;;;;5.88;3.17;;;;;;;;;;5001991;28;20054;-70
2023/07/17 08:01:49;;;;;;;3.67;2.83;;;;;;;;;;5003112;28;20042;-72
2023/07/17 08:04:14;;;;;;;6.38;3.53;;;;;;;;;;5008250;28;20060;-70
2023/07/17 08:06:40;;;;;;;5.68;3.35;;;;;;;;;;4997439;28;20060;-71
2023/07/17 08:09:05;;;;;;;3.58;2.83;;;;;;;;;;4999820;28;20052;-71
2023/07/17 08:11:30;;;;;;;4.43;2.78;;;;;;;;;;5002849;28;20069;-72
2023/07/17 08:13:56;;;;;;;3.95;3.17;;;;;;;;;;4999998;28;20040;-72
2023/07/17 08:16:21;;;;;;;3.83;3.00;;;;;;;;;;4998823;28;20375;-72
2023/07/17 08:18:47;;;;;;;5.07;2.47;;;;;;;;;;5000074;28;20050;-71
2023/07/17 08:21:12;;;;;;;4.03;2.40;;;;;;;;;;5000146;28;20075;-71
2023/07/17 08:23:38;;;;;;;4.05;2.05;;;;;;;;;;5000070;28;21089;-72
2023/07/17 08:26:10;;;;;;;4.65;2.45;;;;;;;;;;4998729;28;20073;-72
2023/07/17 08:28:35;;;;;;;3.63;2.05;;;;;;;;;;4997473;28;20913;-71
2023/07/17 08:31:01;;;;;;;3.03;2.20;;;;;;;;;;5007508;28;20478;-73
2023/07/17 08:33:26;;;;;;;5.63;2.40;;;;;;;;;;4999487;28;20049;-71
2023/07/17 08:35:52;;;;;;;4.45;2.15;;;;;;;;;;5002480;28;20053;-72
2023/07/17 08:38:17;;;;;;;3.83;2.33;;;;;;;;;;5009274;28;20049;-71
2023/07/17 08:40:49;;;;;;;2.53;2.33;;;;;;;;;;5007775;28;20455;-72
2023/07/17 08:43:15;;;;;;;3.50;2.40;;;;;;;;;;5005162;28;20075;-72
2023/07/17 08:45:40;;;;;;;4.72;2.22;;;;;;;;;;5015811;28;20048;-72
2023/07/17 08:48:07;;;;;;;1.88;1.77;;;;;;;;;;5012823;28;20452;-72
2023/07/17 08:50:32;;;;;;;3.83;2.40;;;;;;;;;;5007830;28;20045;-72
2023/07/17 08:52:58;;;;;;;2.67;2.20;;;;;;;;;;5006520;28;20034;-72
2023/07/17 08:55:24;;;;;;;4.10;2.50;;;;;;;;;;5003907;28;20065;-71
2023/07/17 08:57:52;;;;;;;5.30;2.67;;;;;;;;;;5003131;28;20145;-73
2023/07/17 09:00:19;;;;;;;2.63;2.10;;;;;;;;;;5001534;28;20070;-74
2023/07/17 09:02:44;;;;;;;4.15;2.53;;;;;;;;;;5002784;28;20057;-74
2023/07/17 09:05:10;;;;;;;2.85;2.42;;;;;;;;;;5003153;28;20046;-73
2023/07/17 09:07:35;;;;;;;4.10;2.58;;;;;;;;;;5003603;28;20926;-72
2023/07/17 09:10:21;;;;;;;6.38;3.00;;;;;;;;;;5005307;28;20046;-72
2023/07/17 09:12:57;;;;;;;3.88;2.60;;;;;;;;;;5002480;28;20067;-72
2023/07/17 09:15:24;;;;;;;6.72;2.83;;;;;;;;;;5001304;28;20046;-70
2023/07/17 09:17:50;;;;;;;4.85;2.72;;;;;;;;;;5002568;28;20053;-71
2023/07/17 09:20:17;;;;;;;4.13;2.83;;;;;;;;;;5000195;28;20129;-71
2023/07/17 09:22:42;;;;;;;2.80;2.08;;;;;;;;;;5005828;28;20069;-72
2023/07/17 09:25:10;;;;;;;4.50;2.38;;;;;;;;;;5002413;28;20054;-71
2023/07/17 09:27:48;;;;;;;3.20;2.25;;;;;;;;;;5004907;28;20054;-71
2023/07/17 09:30:24;;;;;;;3.53;2.22;;;;;;;;;;5002357;28;20050;-71
2023/07/17 09:32:51;;;;;;;2.20;2.00;;;;;;;;;;5002103;28;20057;-73
2023/07/17 09:35:22;;;;;;;2.83;2.03;;;;;;;;;;5002063;28;20464;-70
2023/07/17 09:37:47;;;;;;;3.13;2.55;;;;;;;;;;5002550;28;20140;-70
2023/07/17 09:40:17;;;;;;;2.50;1.95;;;;;;;;;;5002432;28;20145;-69
2023/07/17 09:42:44;;;;;;;2.92;1.98;;;;;;;;;;5005164;28;20063;-69
2023/07/17 09:45:15;;;;;;;2.70;2.50;;;;;;;;;;5003414;28;20145;-69
2023/07/17 09:47:41;;;;;;;4.63;2.45;;;;;;;;;;5002256;28;20072;-71
2023/07/17 09:50:09;;;;;;;4.45;2.33;;;;;;;;;;5002454;28;20049;-71
2023/07/17 09:52:35;;;;;;;2.13;1.80;;;;;;;;;;5001503;28;20085;-72
2023/07/17 09:55:00;;;;;;;2.85;1.98;;;;;;;;;;5000448;28;20140;-73
2023/07/17 09:57:31;;;;;;;4.97;2.28;;;;;;;;;;5010890;28;20096;-72
2023/07/17 09:59:58;;;;;;;3.72;2.10;;;;;;;;;;5007065;28;20137;-72
2023/07/17 10:02:30;;;;;;;4.43;2.33;;;;;;;;;;5010263;28;20546;-73
2023/07/17 10:04:58;;;;;;;2.08;1.88;;;;;;;;;;5015603;28;20414;-73
2023/07/17 10:07:24;;;;;;;2.65;1.77;;;;;;;;;;5007307;28;20272;-72
2023/07/17 10:09:50;;;;;;;1.92;1.60;;;;;;;;;;5007862;28;20521;-72
2023/07/17 10:12:19;;;;;;;4.40;1.83;;;;;;;;;;5003308;28;20491;-72
2023/07/17 10:14:47;;;;;;;3.30;2.08;;;;;;;;;;5006938;28;20050;-72
2023/07/17 10:17:42;;;;;;;4.30;2.25;;;;;;;;;;5012916;28;20049;-72
2023/07/17 10:20:09;;;;;;;2.85;1.92;;;;;;;;;;5007953;28;20050;-70
2023/07/17 10:22:40;;;;;;;4.07;2.17;;;;;;;;;;5001827;28;20411;-72
2023/07/17 10:25:18;;;;;;;3.28;1.88;;;;;;;;;;5010397;28;20038;-71
2023/07/17 10:27:44;;;;;;;2.50;2.22;;;;;;;;;;5000951;28;20503;-73
2023/07/17 10:30:33;;;;;;;3.17;1.98;;;;;;;;;;5000858;28;20054;-72
2023/07/17 10:33:19;;;;;;;2.15;1.85;;;;;;;;;;5008938;28;20045;-72
2023/07/17 10:35:54;;;;;;;2.45;2.10;;;;;;;;;;5001348;28;20057;-72
2023/07/17 10:38:34;;;;;;;2.10;1.90;;;;;;;;;;4999714;28;20061;-71
2023/07/17 10:41:11;;;;;;;2.58;2.10;;;;;;;;;;5005949;28;20053;-74
2023/07/17 10:43:37;;;;;;;2.08;1.90;;;;;;;;;;5001015;28;20506;-73
2023/07/17 10:46:10;;;;;;;6.05;2.10;;;;;;;;;;5004251;28;20049;-73
2023/07/17 10:48:35;;;;;;;2.58;1.77;;;;;;;;;;5004110;28;20399;-73
2023/07/17 10:51:01;;;;;;;3.00;1.80;;;;;;;;;;5008343;28;20535;-72
2023/07/17 10:53:27;;;;;;;2.33;1.80;;;;;;;;;;5010353;28;20038;-72
2023/07/17 10:55:53;;;;;;;4.80;2.22;;;;;;;;;;5007394;28;20042;-71
2023/07/17 10:58:19;;;;;;;2.17;1.70;;;;;;;;;;5004208;28;20041;-74
2023/07/17 11:00:45;;;;;;;2.42;1.55;;;;;;;;;;5005729;28;20050;-73
2023/07/17 11:03:15;;;;;;;1.77;1.33;;;;;;;;;;5001634;28;20253;-72
2023/07/17 11:05:42;;;;;;;2.00;1.52;;;;;;;;;;5004729;28;20045;-72
2023/07/17 11:08:10;;;;;;;3.10;1.90;;;;;;;;;;5001152;28;21040;-73
2023/07/17 11:10:39;;;;;;;3.25;1.70;;;;;;;;;;4998103;28;20038;-73
2023/07/17 11:13:05;;;;;;;3.58;2.13;;;;;;;;;;5005070;28;20049;-73
2023/07/17 11:15:35;;;;;;;3.13;2.38;;;;;;;;;;5006149;28;20041;-74
2023/07/17 11:18:02;;;;;;;5.88;2.60;;;;;;;;;;5008893;28;20050;-72
2023/07/17 11:20:28;;;;;;;5.78;2.33;;;;;;;;;;5000290;28;20080;-76
2023/07/17 11:22:54;;;;;;;3.40;2.38;;;;;;;;;;5010705;28;20490;-73
2023/07/17 11:25:23;;;;;;;3.13;1.92;;;;;;;;;;5008533;28;20052;-73
2023/07/17 11:27:50;;;;;;;2.88;2.35;;;;;;;;;;5008996;28;20858;-72
2023/07/17 11:30:18;;;;;;;2.30;1.92;;;;;;;;;;5010363;28;20581;-72
2023/07/17 11:32:43;;;;;;;3.28;2.28;;;;;;;;;;5009176;28;20051;-70
2023/07/17 11:35:09;;;;;;;2.38;1.90;;;;;;;;;;5005568;28;20049;-74
2023/07/17 11:37:38;;;;;;;3.20;1.80;;;;;;;;;;4999650;28;20052;-73
2023/07/17 11:40:10;;;;;;;2.90;2.30;;;;;;;;;;5004565;28;20108;-72
2023/07/17 11:42:55;;;;;;;4.55;2.30;;;;;;;;;;5011705;28;20041;-74
2023/07/17 11:45:27;;;;;;;2.22;2.00;;;;;;;;;;5005242;28;20056;-73
2023/07/17 11:47:54;;;;;;;6.18;2.15;;;;;;;;;;5004112;28;20084;-72
2023/07/17 11:50:24;;;;;;;3.67;2.30;;;;;;;;;;5005587;28;20510;-72
2023/07/17 11:53:12;;;;;;;5.03;2.07;;;;;;;;;;4989805;28;20049;-72
2023/07/17 11:55:40;;;;;;;3.80;2.25;;;;;;;;;;4994562;28;20304;-73
2023/07/17 11:58:24;;;;;;;3.65;2.22;;;;;;;;;;4999166;28;20989;-72
2023/07/17 12:00:52;;;;;;;3.10;2.30;;;;;;;;;;5003301;28;20053;-72
2023/07/17 12:03:18;;;;;;;2.67;2.00;;;;;;;;;;5004655;28;20074;-72
2023/07/17 12:05:44;;;;;;;3.72;2.10;;;;;;;;;;5006058;28;20212;-73
2023/07/17 12:08:09;;;;;;;5.15;2.00;;;;;;;;;;5004250;28;20041;-72
2023/07/17 12:10:36;;;;;;;3.35;2.25;;;;;;;;;;5008414;28;20804;-72
2023/07/17 12:13:03;;;;;;;2.50;2.13;;;;;;;;;;5009108;28;20473;-72
2023/07/17 12:15:28;;;;;;;9.55;2.08;;;;;;;;;;5010585;28;20034;-72
2023/07/17 12:17:54;;;;;;;3.50;2.05;;;;;;;;;;5008520;28;20378;-73
2023/07/17 12:20:21;;;;;;;2.15;1.95;;;;;;;;;;5008837;28;20061;-73
2023/07/17 12:22:50;;;;;;;4.50;2.20;;;;;;;;;;5008845;28;20139;-73
2023/07/17 12:25:16;;;;;;;2.22;2.00;;;;;;;;;;5008999;28;20041;-73
2023/07/17 12:27:42;;;;;;;2.28;2.08;;;;;;;;;;5008114;28;20045;-72
2023/07/17 12:30:09;;;;;;;4.47;2.00;;;;;;;;;;5005945;28;20049;-72
2023/07/17 12:32:34;;;;;;;4.22;2.28;;;;;;;;;;5006287;28;20207;-73
2023/07/17 12:35:00;;;;;;;5.10;2.45;;;;;;;;;;5009038;28;20132;-72
2023/07/17 12:37:28;;;;;;;2.70;2.15;;;;;;;;;;5008899;28;20053;-72
2023/07/17 12:39:53;;;;;;;3.28;2.22;;;;;;;;;;5002801;28;20434;-72
2023/07/17 12:42:19;;;;;;;2.47;2.22;;;;;;;;;;5003819;28;20057;-72
2023/07/17 12:44:44;;;;;;;5.47;2.58;;;;;;;;;;5007846;28;20068;-72
2023/07/17 12:47:10;;;;;;;4.20;2.00;;;;;;;;;;5001779;28;20149;-73
2023/07/17 12:49:35;;;;;;;3.28;2.13;;;;;;;;;;5002850;28;20038;-73
2023/07/17 12:52:01;;;;;;;4.65;2.10;;;;;;;;;;5007291;28;20148;-74
2023/07/17 12:54:26;;;;;;;3.25;1.88;;;;;;;;;;5008887;28;20056;-73
2023/07/17 12:56:52;;;;;;;4.35;1.92;;;;;;;;;;5002310;28;20080;-73
2023/07/17 12:59:17;;;;;;;3.00;1.70;;;;;;;;;;5002798;28;20060;-73
2023/07/17 13:01:43;;;;;;;3.50;2.10;;;;;;;;;;5007331;28;20076;-72
2023/07/17 13:04:08;;;;;;;2.13;1.92;;;;;;;;;;5006289;28;20044;-73
2023/07/17 13:06:34;;;;;;;3.10;2.20;;;;;;;;;;5007389;28;20052;-74
2023/07/17 13:09:00;;;;;;;3.30;2.17;;;;;;;;;;5004521;28;20081;-71
2023/07/17 13:11:25;;;;;;;2.40;1.77;;;;;;;;;;5009173;28;20053;-73
2023/07/17 13:13:51;;;;;;;3.22;1.98;;;;;;;;;;5006842;28;20042;-72
2023/07/17 13:16:16;;;;;;;2.40;1.90;;;;;;;;;;5005973;28;20088;-72
2023/07/17 13:18:42;;;;;;;2.28;1.90;;;;;;;;;;5003846;28;20045;-72
2023/07/17 13:21:07;;;;;;;3.97;2.08;;;;;;;;;;5020646;28;20180;-74
2023/07/17 13:23:33;;;;;;;2.65;1.95;;;;;;;;;;5009174;28;20050;-73
2023/07/17 13:25:58;;;;;;;3.00;1.95;;;;;;;;;;5006802;28;20045;-74
2023/07/17 13:28:24;;;;;;;3.30;2.30;;;;;;;;;;5006226;28;20057;-74
2023/07/17 13:30:49;;;;;;;3.60;2.03;;;;;;;;;;5009495;28;20053;-72
2023/07/17 13:33:16;;;;;;;4.05;2.03;;;;;;;;;;5001692;28;20048;-72
2023/07/17 13:35:41;;;;;;;3.03;2.08;;;;;;;;;;5005441;28;20041;-73
2023/07/17 13:38:06;;;;;;;2.88;2.00;;;;;;;;;;4998401;28;20046;-72
2023/07/17 13:40:32;;;;;;;2.92;1.65;;;;;;;;;;4999023;28;20104;-72
2023/07/17 13:42:57;;;;;;;2.30;2.08;;;;;;;;;;5000359;28;20083;-72
2023/07/17 13:45:24;;;;;;;3.42;2.13;;;;;;;;;;5006218;28;20104;-73
2023/07/17 13:47:49;;;;;;;2.30;1.83;;;;;;;;;;5000309;28;20038;-71
2023/07/17 13:50:15;;;;;;;3.60;1.90;;;;;;;;;;4999989;28;20760;-73
2023/07/17 13:52:41;;;;;;;2.88;2.33;;;;;;;;;;5001605;28;20042;-72
2023/07/17 13:55:07;;;;;;;5.93;2.15;;;;;;;;;;5006315;28;20041;-72
2023/07/17 13:57:32;;;;;;;2.33;2.03;;;;;;;;;;5005008;28;20038;-72
2023/07/17 13:59:57;;;;;;;4.20;2.28;;;;;;;;;;5000697;28;20509;-71
2023/07/17 14:02:23;;;;;;;2.45;2.25;;;;;;;;;;5001551;28;20053;-73
2023/07/17 14:04:49;;;;;;;2.33;1.95;;;;;;;;;;5013286;28;20170;-74
2023/07/17 14:07:14;;;;;;;2.83;2.00;;;;;;;;;;5003365;28;20042;-72
2023/07/17 14:09:40;;;;;;;4.18;1.90;;;;;;;;;;5001476;28;20133;-72
2023/07/17 14:12:05;;;;;;;3.70;2.10;;;;;;;;;;5004191;28;20045;-72
2023/07/17 14:14:31;;;;;;;3.35;2.10;;;;;;;;;;5006444;28;20148;-71
2023/07/17 14:16:57;;;;;;;2.85;1.80;;;;;;;;;;4985579;28;20065;-72
2023/07/17 14:19:22;;;;;;;2.17;1.95;;;;;;;;;;4998027;28;20617;-72
2023/07/17 14:21:47;;;;;;;2.35;1.73;;;;;;;;;;4999387;28;20521;-70
2023/07/17 14:24:13;;;;;;;2.10;1.90;;;;;;;;;;4998221;28;20148;-72
2023/07/17 14:26:39;;;;;;;2.40;1.95;;;;;;;;;;4999436;28;20487;-71
2023/07/17 14:29:05;;;;;;;3.35;1.98;;;;;;;;;;4997365;28;20046;-71
2023/07/17 14:31:30;;;;;;;2.45;2.25;;;;;;;;;;5001752;28;20045;-71
2023/07/17 14:33:56;;;;;;;2.63;2.38;;;;;;;;;;5002355;28;20423;-71
2023/07/17 14:36:21;;;;;;;2.53;2.30;;;;;;;;;;5006923;28;20067;-72
2023/07/17 14:38:47;;;;;;;2.22;2.03;;;;;;;;;;5005854;28;20681;-70
2023/07/17 14:41:13;;;;;;;2.90;2.20;;;;;;;;;;5002067;28;20047;-72